createdAt,value
2023-02-22T00:01:21.852Z,88.76
2023-02-22T00:03:49.752Z,88.18
2023-02-22T00:06:17.289Z,88.97
2023-02-22T00:08:43.636Z,88.85
2023-02-22T00:11:09.937Z,88.08
2023-02-22T00:13:37.325Z,88.05
2023-02-22T00:16:04.096Z,88.20
2023-02-22T00:18:30.392Z,88.33
2023-02-22T00:20:57.541Z,88.52
2023-02-22T00:23:23.857Z,88.80
2023-02-22T00:25:50.609Z,88.97
2023-02-22T00:28:17.900Z,88.16
2023-02-22T00:30:44.660Z,88.24
2023-02-22T00:33:12.604Z,87.55
2023-02-22T00:35:39.621Z,87.73
2023-02-22T00:38:06.983Z,87.81
2023-02-22T00:40:34.066Z,88.90
2023-02-22T00:43:01.960Z,89.33
2023-02-22T00:45:29.223Z,89.19
2023-02-22T00:47:55.761Z,88.92
2023-02-22T00:50:23.420Z,87.92
2023-02-22T00:52:50.842Z,87.16
2023-02-22T00:55:18.662Z,88.54
2023-02-22T00:57:45.202Z,87.71
2023-02-22T01:00:20.302Z,87.72
2023-02-22T01:02:46.758Z,87.94
2023-02-22T01:05:13.716Z,88.20
2023-02-22T01:07:40.313Z,86.90
2023-02-22T01:10:07.334Z,87.89
2023-02-22T01:12:34.980Z,88.02
2023-02-22T01:15:07.564Z,88.40
2023-02-22T01:17:33.808Z,88.89
2023-02-22T01:20:00.294Z,89.38
2023-02-22T01:22:27.258Z,88.30
2023-02-22T01:24:53.512Z,87.72
2023-02-22T01:27:20.332Z,88.87
2023-02-22T01:29:48.070Z,88.49
2023-02-22T01:32:14.702Z,88.37
2023-02-22T01:34:41.143Z,88.50
2023-02-22T01:37:10.464Z,88.28
2023-02-22T01:39:37.302Z,87.65
2023-02-22T01:42:03.600Z,87.50
2023-02-22T01:44:32.444Z,87.47
2023-02-22T01:46:59.427Z,87.81
2023-02-22T01:49:29.015Z,87.27
2023-02-22T01:51:57.327Z,87.33
2023-02-22T01:54:35.604Z,87.76
2023-02-22T01:57:02.273Z,88.08
2023-02-22T01:59:31.665Z,88.60
2023-02-22T02:01:58.716Z,88.57
2023-02-22T02:04:25.794Z,88.75
2023-02-22T02:06:57.284Z,88.76
2023-02-22T02:09:38.199Z,89.26
2023-02-22T02:12:07.069Z,89.58
2023-02-22T02:14:33.568Z,89.82
2023-02-22T02:17:00.333Z,90.08
2023-02-22T02:19:50.004Z,90.36
2023-02-22T02:22:19.385Z,91.03
2023-02-22T02:25:04.135Z,90.89
2023-02-22T02:27:41.022Z,90.67
2023-02-22T02:30:19.476Z,90.21
2023-02-22T02:33:15.234Z,89.66
2023-02-22T02:35:41.558Z,90.03
2023-02-22T02:38:22.046Z,90.34
2023-02-22T02:40:54.246Z,90.25
2023-02-22T02:43:28.215Z,90.30
2023-02-22T02:46:30.131Z,90.44
2023-02-22T02:49:09.851Z,90.70
2023-02-22T02:51:38.693Z,90.70
2023-02-22T02:54:05.644Z,90.86
2023-02-22T02:56:41.097Z,91.24
2023-02-22T02:59:42.765Z,91.26
2023-02-22T03:02:27.435Z,91.53
2023-02-22T03:05:12.953Z,91.42
2023-02-22T03:07:46.549Z,91.15
2023-02-22T03:10:25.970Z,91.29
2023-02-22T03:13:10.968Z,91.43
2023-02-22T03:15:37.463Z,91.62
2023-02-22T03:18:03.926Z,91.08
2023-02-22T03:20:42.822Z,91.09
2023-02-22T03:23:12.306Z,90.73
2023-02-22T03:25:46.321Z,90.52
2023-02-22T03:28:15.861Z,90.82
2023-02-22T03:30:51.343Z,90.93
2023-02-22T03:33:22.724Z,91.29
2023-02-22T03:35:54.209Z,91.50
2023-02-22T03:38:20.780Z,91.78
2023-02-22T03:40:49.917Z,91.94
2023-02-22T03:43:20.889Z,92.08
2023-02-22T03:45:48.733Z,92.32
2023-02-22T03:48:37.146Z,91.96
2023-02-22T03:51:05.084Z,92.21
2023-02-22T03:53:33.389Z,92.55
2023-02-22T03:56:01.922Z,92.53
2023-02-22T03:58:31.172Z,92.36
2023-02-22T04:00:57.572Z,92.45
2023-02-22T04:03:24.086Z,92.42
2023-02-22T04:05:50.860Z,90.58
2023-02-22T04:08:20.968Z,90.72
2023-02-22T04:10:47.820Z,91.70
2023-02-22T04:13:15.838Z,91.98
2023-02-22T04:15:45.908Z,91.89
2023-02-22T04:18:12.431Z,91.54
2023-02-22T04:20:38.989Z,91.85
2023-02-22T04:23:10.891Z,92.08
2023-02-22T04:25:39.284Z,92.05
2023-02-22T04:28:11.040Z,92.05
2023-02-22T04:30:45.278Z,91.99
2023-02-22T04:33:14.471Z,91.97
2023-02-22T04:35:40.799Z,91.99
2023-02-22T04:38:07.327Z,91.93
2023-02-22T04:40:36.854Z,91.88
2023-02-22T04:43:03.352Z,91.52
2023-02-22T04:45:30.262Z,91.91
2023-02-22T04:47:56.679Z,92.31
2023-02-22T04:50:23.192Z,92.26
2023-02-22T04:52:49.543Z,92.82
2023-02-22T04:55:16.215Z,92.95
2023-02-22T04:57:42.832Z,92.80
2023-02-22T05:00:09.449Z,92.65
2023-02-22T05:02:40.047Z,92.54
2023-02-22T05:05:08.948Z,92.42
2023-02-22T05:07:35.352Z,92.63
2023-02-22T05:10:01.800Z,92.59
2023-02-22T05:12:28.107Z,92.93
2023-02-22T05:14:54.580Z,92.56
2023-02-22T05:17:20.929Z,92.89
2023-02-22T05:19:47.367Z,93.17
2023-02-22T05:22:16.167Z,93.11
2023-02-22T05:24:42.536Z,93.20
2023-02-22T05:27:11.503Z,93.06
2023-02-22T05:29:37.800Z,92.97
2023-02-22T05:32:11.691Z,93.20
2023-02-22T05:34:41.241Z,93.21
2023-02-22T05:37:07.622Z,92.92
2023-02-22T05:39:34.151Z,91.13
2023-02-22T05:42:00.503Z,90.68
2023-02-22T05:44:29.912Z,91.50
2023-02-22T05:46:56.348Z,91.91
2023-02-22T05:49:30.360Z,92.50
2023-02-22T05:51:59.300Z,92.43
2023-02-22T05:54:25.692Z,92.13
2023-02-22T05:56:54.428Z,92.16
2023-02-22T05:59:20.787Z,91.91
2023-02-22T06:01:49.935Z,91.81
2023-02-22T06:04:16.387Z,91.81
2023-02-22T06:06:43.073Z,91.21
2023-02-22T06:09:09.587Z,90.80
2023-02-22T06:11:35.892Z,91.07
2023-02-22T06:14:02.419Z,90.50
2023-02-22T06:16:29.198Z,89.99
2023-02-22T06:18:55.903Z,89.33
2023-02-22T06:21:22.544Z,89.39
2023-02-22T06:23:48.879Z,90.15
2023-02-22T06:26:16.150Z,89.88
2023-02-22T06:28:47.732Z,89.17
2023-02-22T06:31:19.946Z,89.17
2023-02-22T06:33:46.391Z,89.12
2023-02-22T06:36:12.690Z,89.06
2023-02-22T06:38:39.092Z,89.25
2023-02-22T06:41:05.437Z,90.17
2023-02-22T06:43:31.725Z,90.94
2023-02-22T06:45:58.274Z,91.11
2023-02-22T06:48:25.003Z,91.51
2023-02-22T06:50:51.454Z,91.76
2023-02-22T06:53:17.739Z,92.08
2023-02-22T06:55:44.187Z,91.34
2023-02-22T06:58:10.514Z,90.30
2023-02-22T07:00:37.136Z,90.72
2023-02-22T07:03:04.249Z,90.26
2023-02-22T07:05:33.544Z,90.47
2023-02-22T07:08:04.374Z,88.39
2023-02-22T07:10:31.549Z,88.54
2023-02-22T07:12:58.380Z,89.87
2023-02-22T07:15:25.433Z,90.62
2023-02-22T07:17:52.070Z,90.01
2023-02-22T07:20:19.279Z,90.57
2023-02-22T07:22:45.919Z,90.67
2023-02-22T07:25:12.623Z,90.88
2023-02-22T07:27:39.594Z,91.35
2023-02-22T07:30:06.687Z,91.70
2023-02-22T07:32:33.218Z,89.65
2023-02-22T07:34:59.854Z,88.82
2023-02-22T07:37:31.616Z,89.32
2023-02-22T07:39:57.915Z,88.91
2023-02-22T07:42:24.510Z,88.23
2023-02-22T07:44:50.910Z,87.08
2023-02-22T07:47:17.404Z,87.08
2023-02-22T07:49:43.797Z,89.00
2023-02-22T07:52:10.174Z,87.36
2023-02-22T07:54:36.547Z,86.25
2023-02-22T07:57:03.237Z,85.13
2023-02-22T07:59:29.813Z,86.28
2023-02-22T08:01:56.207Z,85.28
2023-02-22T08:04:22.967Z,86.59
2023-02-22T08:06:49.484Z,87.87
2023-02-22T08:09:16.126Z,88.70
2023-02-22T08:11:42.824Z,90.00
2023-02-22T08:14:09.771Z,91.21
2023-02-22T08:16:36.156Z,90.55
2023-02-22T08:19:02.585Z,89.70
2023-02-22T08:21:28.972Z,91.05
2023-02-22T08:23:55.314Z,87.84
2023-02-22T08:26:21.806Z,88.04
2023-02-22T08:28:48.206Z,87.90
2023-02-22T08:31:14.883Z,86.84
2023-02-22T08:33:41.589Z,85.02
2023-02-22T08:36:08.278Z,85.50
2023-02-22T08:38:35.009Z,84.12
2023-02-22T08:41:01.732Z,85.64
2023-02-22T08:43:28.340Z,86.25
2023-02-22T08:45:57.275Z,84.50
2023-02-22T08:48:24.569Z,86.39
2023-02-22T08:50:51.064Z,82.88
2023-02-22T08:53:19.955Z,83.37
2023-02-22T08:55:48.606Z,82.28
2023-02-22T08:58:17.348Z,82.53
2023-02-22T09:00:44.199Z,81.51
2023-02-22T09:03:12.571Z,80.39
2023-02-22T09:05:39.460Z,79.95
2023-02-22T09:08:08.968Z,79.49
2023-02-22T09:10:35.515Z,78.97
2023-02-22T09:13:04.456Z,78.95
2023-02-22T09:15:31.830Z,80.05
2023-02-22T09:17:58.719Z,87.17
2023-02-22T09:20:34.530Z,87.94
2023-02-22T09:23:02.935Z,83.43
2023-02-22T09:25:49.370Z,80.58
2023-02-22T09:28:15.961Z,80.40
2023-02-22T09:30:47.911Z,84.97
2023-02-22T09:33:22.440Z,86.32
2023-02-22T09:35:49.522Z,84.52
2023-02-22T09:38:18.747Z,81.28
2023-02-22T09:40:47.194Z,77.57
2023-02-22T09:43:26.212Z,79.17
2023-02-22T09:46:04.446Z,77.87
2023-02-22T09:48:55.771Z,77.70
2023-02-22T09:51:24.577Z,78.93
2023-02-22T09:54:10.849Z,79.13
2023-02-22T09:56:38.090Z,79.00
2023-02-22T09:59:10.919Z,76.83
2023-02-22T10:01:44.234Z,75.42
2023-02-22T10:04:21.453Z,73.92
2023-02-22T10:06:56.825Z,75.45
2023-02-22T10:09:26.381Z,77.69
2023-02-22T10:12:02.882Z,79.11
2023-02-22T10:14:35.778Z,78.13
2023-02-22T10:17:21.705Z,77.56
2023-02-22T10:19:57.804Z,75.29
2023-02-22T10:22:30.475Z,76.64
2023-02-22T10:25:05.143Z,81.37
2023-02-22T10:27:32.940Z,82.82
2023-02-22T10:30:25.012Z,79.97
2023-02-22T10:32:55.443Z,78.87
2023-02-22T10:35:23.298Z,77.20
2023-02-22T10:37:54.363Z,73.08
2023-02-22T10:40:22.205Z,70.23
2023-02-22T10:42:51.295Z,70.12
2023-02-22T10:45:29.023Z,69.87
2023-02-22T10:47:56.688Z,72.69
2023-02-22T10:50:23.091Z,71.83
2023-02-22T10:52:49.712Z,78.64
2023-02-22T10:55:16.251Z,82.03
2023-02-22T10:57:46.884Z,73.23
2023-02-22T11:00:18.995Z,74.51
2023-02-22T11:02:57.558Z,75.31
2023-02-22T11:05:37.509Z,73.36
2023-02-22T11:08:24.354Z,73.48
2023-02-22T11:10:55.414Z,77.46
2023-02-22T11:13:27.447Z,78.81
2023-02-22T11:15:55.038Z,72.21
2023-02-22T11:18:23.586Z,73.78
2023-02-22T11:20:58.101Z,78.35
2023-02-22T11:23:24.755Z,72.48
2023-02-22T11:26:00.022Z,71.22
2023-02-22T11:28:28.497Z,69.66
2023-02-22T11:30:56.027Z,67.48
2023-02-22T11:33:24.536Z,67.25
2023-02-22T11:35:55.086Z,70.36
2023-02-22T11:38:25.808Z,67.63
2023-02-22T11:41:12.008Z,67.87
2023-02-22T11:43:38.463Z,68.37
2023-02-22T11:46:12.979Z,66.13
2023-02-22T11:48:41.521Z,66.16
2023-02-22T11:51:17.104Z,65.77
2023-02-22T11:53:52.246Z,77.18
2023-02-22T11:56:37.007Z,70.55
2023-02-22T11:59:18.034Z,70.19
2023-02-22T12:01:47.594Z,68.48
2023-02-22T12:04:14.459Z,68.63
2023-02-22T12:06:50.511Z,67.65
2023-02-22T12:09:38.392Z,69.26
2023-02-22T12:12:23.490Z,71.52
2023-02-22T12:15:11.003Z,67.56
2023-02-22T12:18:00.457Z,66.99
2023-02-22T12:20:59.643Z,70.34
2023-02-22T12:23:47.367Z,65.92
2023-02-22T12:26:17.516Z,65.52
2023-02-22T12:28:51.177Z,70.93
2023-02-22T12:31:20.783Z,65.68
2023-02-22T12:33:51.079Z,72.09
2023-02-22T12:36:22.697Z,76.85
2023-02-22T12:38:56.512Z,71.27
2023-02-22T12:41:49.657Z,78.86
2023-02-22T12:44:21.290Z,68.46
2023-02-22T12:46:55.287Z,67.90
2023-02-22T12:49:27.676Z,70.12
2023-02-22T12:52:20.983Z,66.82
2023-02-22T12:54:52.449Z,65.55
2023-02-22T12:57:19.102Z,71.92
2023-02-22T12:59:51.176Z,75.43
2023-02-22T13:02:20.696Z,64.74
2023-02-22T13:04:48.300Z,63.53
2023-02-22T13:07:20.166Z,78.46
2023-02-22T13:09:58.977Z,73.45
2023-02-22T13:12:37.854Z,67.53
2023-02-22T13:15:13.784Z,65.46
2023-02-22T13:17:46.682Z,67.42
2023-02-22T13:20:25.585Z,64.36
2023-02-22T13:22:55.026Z,65.24
2023-02-22T13:25:21.694Z,72.46
2023-02-22T13:27:51.555Z,69.29
2023-02-22T13:30:25.568Z,69.88
2023-02-22T13:33:09.058Z,76.99
2023-02-22T13:36:09.636Z,73.35
2023-02-22T13:39:04.800Z,71.12
2023-02-22T13:41:47.014Z,69.23
2023-02-22T13:44:32.225Z,68.69
2023-02-22T13:47:01.502Z,81.21
2023-02-22T13:50:08.408Z,74.55
2023-02-22T13:52:38.645Z,81.66
2023-02-22T13:55:08.022Z,76.15
2023-02-22T13:57:45.596Z,78.14
2023-02-22T14:00:17.435Z,81.73
2023-02-22T14:03:02.471Z,74.31
2023-02-22T14:05:41.575Z,69.11
2023-02-22T14:08:17.687Z,68.24
2023-02-22T14:10:46.702Z,65.76
2023-02-22T14:13:16.417Z,64.74
2023-02-22T14:15:58.614Z,68.03
2023-02-22T14:18:26.144Z,66.72
2023-02-22T14:21:09.814Z,65.18
2023-02-22T14:23:37.619Z,65.17
2023-02-22T14:26:10.170Z,65.59
2023-02-22T14:28:48.319Z,65.94
2023-02-22T14:31:33.297Z,65.16
2023-02-22T14:34:15.307Z,65.01
2023-02-22T14:37:06.569Z,65.72
2023-02-22T14:39:41.887Z,65.47
2023-02-22T14:42:21.244Z,66.20
2023-02-22T14:44:47.940Z,69.18
2023-02-22T14:47:17.181Z,67.91
2023-02-22T14:49:46.309Z,70.79
2023-02-22T14:52:27.393Z,68.91
2023-02-22T14:55:04.038Z,73.01
2023-02-22T14:57:54.372Z,68.06
2023-02-22T15:00:43.550Z,71.05
2023-02-22T15:03:39.151Z,67.01
2023-02-22T15:06:14.599Z,67.62
2023-02-22T15:08:41.817Z,67.71
2023-02-22T15:11:25.558Z,68.53
2023-02-22T15:13:53.098Z,67.72
2023-02-22T15:16:21.982Z,67.65
2023-02-22T15:18:53.163Z,68.01
2023-02-22T15:21:22.644Z,66.76
2023-02-22T15:23:55.031Z,68.02
2023-02-22T15:26:26.194Z,67.63
2023-02-22T15:28:53.940Z,69.11
2023-02-22T15:31:23.484Z,69.35
2023-02-22T15:33:51.417Z,69.07
2023-02-22T15:36:18.780Z,67.91
2023-02-22T15:38:49.466Z,68.32
2023-02-22T15:41:21.423Z,70.07
2023-02-22T15:44:22.668Z,70.31
2023-02-22T15:46:50.637Z,68.19
2023-02-22T15:49:19.069Z,67.50
2023-02-22T15:51:46.390Z,67.93
2023-02-22T15:54:25.069Z,67.54
2023-02-22T15:56:54.001Z,68.68
2023-02-22T15:59:21.237Z,71.48
2023-02-22T16:01:49.910Z,75.52
2023-02-22T16:04:24.573Z,76.48
2023-02-22T16:06:53.109Z,77.26
2023-02-22T16:09:21.351Z,77.17
2023-02-22T16:11:48.272Z,77.56
2023-02-22T16:14:28.253Z,76.07
2023-02-22T16:17:23.855Z,74.18
2023-02-22T16:19:51.436Z,76.58
2023-02-22T16:22:28.713Z,76.27
2023-02-22T16:25:10.740Z,79.48
2023-02-22T16:27:41.489Z,78.60
2023-02-22T16:30:24.676Z,78.91
2023-02-22T16:32:53.667Z,77.45
2023-02-22T16:35:23.643Z,76.39
2023-02-22T16:37:51.663Z,75.19
2023-02-22T16:40:26.375Z,75.26
2023-02-22T16:42:52.931Z,74.82
2023-02-22T16:45:20.819Z,75.48
2023-02-22T16:47:47.500Z,76.32
2023-02-22T16:50:14.061Z,77.38
2023-02-22T16:52:40.966Z,76.98
2023-02-22T16:55:13.172Z,75.74
2023-02-22T16:57:40.727Z,74.84
2023-02-22T17:00:28.376Z,75.50
2023-02-22T17:02:55.063Z,75.86
2023-02-22T17:05:21.592Z,75.97
2023-02-22T17:07:48.470Z,78.54
2023-02-22T17:10:16.271Z,83.39
2023-02-22T17:12:46.944Z,83.31
2023-02-22T17:15:22.879Z,80.62
2023-02-22T17:17:51.246Z,79.45
2023-02-22T17:20:18.348Z,79.37
2023-02-22T17:22:47.889Z,77.80
2023-02-22T17:25:22.459Z,77.21
2023-02-22T17:27:49.056Z,77.70
2023-02-22T17:30:16.343Z,78.57
2023-02-22T17:32:45.676Z,79.61
2023-02-22T17:35:15.342Z,79.88
2023-02-22T17:37:52.159Z,80.04
2023-02-22T17:40:20.161Z,80.13
2023-02-22T17:42:50.855Z,80.37
2023-02-22T17:45:21.618Z,79.40
2023-02-22T17:47:51.561Z,78.87
2023-02-22T17:50:19.072Z,79.06
2023-02-22T17:52:46.194Z,79.94
2023-02-22T17:55:12.960Z,80.69
2023-02-22T17:57:39.892Z,81.30
2023-02-22T18:00:07.215Z,80.87
2023-02-22T18:02:42.430Z,79.47
2023-02-22T18:05:14.524Z,79.90
2023-02-22T18:07:41.668Z,79.69
2023-02-22T18:10:09.358Z,80.29
2023-02-22T18:12:36.050Z,80.62
2023-02-22T18:15:02.749Z,80.62
2023-02-22T18:17:29.555Z,81.11
2023-02-22T18:19:56.173Z,81.37
2023-02-22T18:22:42.802Z,80.70
2023-02-22T18:25:13.162Z,78.71
2023-02-22T18:27:42.992Z,79.96
2023-02-22T18:30:09.979Z,80.30
2023-02-22T18:32:39.325Z,80.07
2023-02-22T18:35:06.689Z,79.21
2023-02-22T18:37:34.157Z,78.04
2023-02-22T18:40:00.780Z,77.71
2023-02-22T18:42:27.899Z,77.26
2023-02-22T18:44:54.874Z,77.49
2023-02-22T18:47:21.817Z,77.30
2023-02-22T18:49:48.592Z,78.13
2023-02-22T18:52:15.416Z,79.18
2023-02-22T18:54:42.359Z,79.36
2023-02-22T18:57:10.421Z,79.57
2023-02-22T18:59:39.768Z,82.23
2023-02-22T19:02:12.903Z,84.16
2023-02-22T19:04:41.672Z,84.38
2023-02-22T19:07:10.948Z,83.90
2023-02-22T19:09:37.828Z,84.32
2023-02-22T19:12:05.172Z,83.09
2023-02-22T19:14:34.078Z,82.77
2023-02-22T19:17:03.778Z,82.63
2023-02-22T19:19:36.735Z,82.16
2023-02-22T19:22:04.578Z,81.26
2023-02-22T19:24:33.435Z,82.80
2023-02-22T19:27:05.322Z,85.43
2023-02-22T19:29:41.092Z,87.44
2023-02-22T19:32:11.248Z,88.27
2023-02-22T19:34:37.905Z,88.69
2023-02-22T19:37:04.873Z,88.43
2023-02-22T19:39:32.964Z,88.35
2023-02-22T19:42:12.602Z,85.35
2023-02-22T19:44:43.798Z,83.71
2023-02-22T19:47:11.479Z,82.92
2023-02-22T19:49:38.007Z,82.68
2023-02-22T19:52:04.575Z,82.21
2023-02-22T19:54:31.604Z,82.21
2023-02-22T19:56:59.379Z,82.62
2023-02-22T19:59:26.199Z,85.16
2023-02-22T20:01:53.536Z,86.15
2023-02-22T20:04:20.287Z,86.14
2023-02-22T20:06:48.100Z,85.76
2023-02-22T20:09:16.859Z,86.42
2023-02-22T20:11:44.205Z,85.30
2023-02-22T20:14:21.432Z,84.04
2023-02-22T20:16:48.347Z,83.05
2023-02-22T20:19:15.082Z,82.47
2023-02-22T20:21:42.005Z,83.15
2023-02-22T20:24:10.441Z,83.51
2023-02-22T20:26:38.273Z,82.31
2023-02-22T20:29:06.005Z,81.48
2023-02-22T20:31:33.538Z,81.10
2023-02-22T20:34:02.824Z,81.04
2023-02-22T20:36:29.624Z,81.12
2023-02-22T20:38:58.048Z,81.10
2023-02-22T20:41:28.965Z,81.24
2023-02-22T20:43:55.994Z,81.99
2023-02-22T20:46:23.452Z,82.02
2023-02-22T20:48:53.453Z,82.54
2023-02-22T20:51:20.086Z,82.96
2023-02-22T20:53:47.185Z,83.20
2023-02-22T20:56:15.201Z,83.28
2023-02-22T20:58:41.832Z,82.67
2023-02-22T21:01:09.504Z,82.01
2023-02-22T21:03:35.892Z,81.67
2023-02-22T21:06:03.509Z,82.16
2023-02-22T21:08:30.566Z,82.68
2023-02-22T21:10:57.057Z,82.93
2023-02-22T21:13:23.491Z,83.13
2023-02-22T21:15:50.157Z,82.85
2023-02-22T21:18:16.663Z,82.13
2023-02-22T21:20:43.108Z,81.94
2023-02-22T21:23:10.019Z,82.08
2023-02-22T21:25:37.350Z,81.73
2023-02-22T21:28:04.324Z,81.93
2023-02-22T21:30:32.241Z,81.03
2023-02-22T21:32:58.983Z,80.54
2023-02-22T21:35:25.504Z,80.07
2023-02-22T21:37:55.137Z,80.10
2023-02-22T21:40:24.438Z,79.95
2023-02-22T21:42:50.844Z,80.17
2023-02-22T21:45:18.673Z,81.34
2023-02-22T21:47:45.626Z,82.55
2023-02-22T21:50:12.717Z,83.01
2023-02-22T21:52:39.175Z,82.49
2023-02-22T21:55:06.017Z,81.78
2023-02-22T21:57:32.654Z,80.96
2023-02-22T22:00:03.693Z,81.03
2023-02-22T22:02:39.084Z,81.64
2023-02-22T22:05:11.377Z,82.74
2023-02-22T22:07:37.990Z,81.81
2023-02-22T22:10:05.469Z,82.09
2023-02-22T22:12:44.360Z,81.90
2023-02-22T22:15:13.473Z,82.55
2023-02-22T22:17:39.790Z,83.36
2023-02-22T22:20:07.235Z,85.06
2023-02-22T22:22:33.647Z,83.89
2023-02-22T22:25:00.197Z,83.61
2023-02-22T22:27:26.607Z,83.97
2023-02-22T22:29:53.038Z,83.68
2023-02-22T22:32:19.487Z,83.79
2023-02-22T22:34:45.955Z,82.74
2023-02-22T22:37:12.661Z,85.39
2023-02-22T22:39:39.088Z,84.97
2023-02-22T22:42:05.568Z,83.66
2023-02-22T22:44:35.247Z,84.01
2023-02-22T22:47:01.595Z,84.93
2023-02-22T22:49:27.990Z,84.15
2023-02-22T22:51:54.367Z,85.62
2023-02-22T22:54:20.801Z,86.84
2023-02-22T22:56:47.220Z,86.11
2023-02-22T22:59:13.659Z,85.48
2023-02-22T23:01:41.477Z,86.78
2023-02-22T23:04:09.880Z,86.81
2023-02-22T23:06:37.885Z,87.09
2023-02-22T23:09:04.316Z,87.82
2023-02-22T23:11:30.781Z,88.35
2023-02-22T23:13:57.151Z,88.56
2023-02-22T23:16:25.766Z,87.44
2023-02-22T23:18:52.436Z,88.82
2023-02-22T23:21:19.142Z,90.14
2023-02-22T23:23:45.694Z,91.56
2023-02-22T23:26:12.590Z,91.65
2023-02-22T23:28:39.475Z,91.93
2023-02-22T23:31:08.751Z,92.21
2023-02-22T23:33:35.247Z,92.56
2023-02-22T23:36:01.598Z,93.02
2023-02-22T23:38:27.954Z,93.27
2023-02-22T23:40:54.431Z,93.49
2023-02-22T23:43:21.322Z,93.68
2023-02-22T23:45:47.905Z,93.90
2023-02-22T23:48:14.557Z,93.87
2023-02-22T23:50:43.697Z,93.89
2023-02-22T23:53:10.429Z,94.15
2023-02-22T23:55:37.422Z,94.28
2023-02-22T23:58:03.871Z,94.35
